createdAt,value
2018-07-17T00:01:50.264Z,16.60
2018-07-17T00:04:24.647Z,16.80
2018-07-17T00:06:58.888Z,17.00
2018-07-17T00:09:33.325Z,17.10
2018-07-17T00:12:08.052Z,17.10
2018-07-17T00:14:42.387Z,17.20
2018-07-17T00:17:16.700Z,17.20
2018-07-17T00:19:51.041Z,17.30
2018-07-17T00:22:25.459Z,17.30
2018-07-17T00:24:59.705Z,17.20
2018-07-17T00:27:34.003Z,16.20
2018-07-17T00:30:08.363Z,15.90
2018-07-17T00:32:42.676Z,15.60
2018-07-17T00:35:17.131Z,15.70
2018-07-17T00:37:51.430Z,15.80
2018-07-17T00:40:25.975Z,16.10
2018-07-17T00:43:00.221Z,16.30
2018-07-17T00:45:34.532Z,16.50
2018-07-17T00:48:08.959Z,16.60
2018-07-17T00:50:43.263Z,16.60
2018-07-17T00:53:17.567Z,16.60
2018-07-17T00:55:52.667Z,16.20
2018-07-17T00:58:27.097Z,16.40
2018-07-17T01:01:00.789Z,16.30
2018-07-17T01:03:40.607Z,16.40
2018-07-17T01:06:20.723Z,16.10
2018-07-17T01:09:00.433Z,16.20
2018-07-17T01:11:40.492Z,16.10
2018-07-17T01:14:26.714Z,16.10
2018-07-17T01:17:01.045Z,15.90
2018-07-17T01:19:35.622Z,16.20
2018-07-17T01:22:09.951Z,16.30
2018-07-17T01:24:44.320Z,16.50
2018-07-17T01:27:18.655Z,16.60
2018-07-17T01:29:53.272Z,16.50
2018-07-17T01:32:27.717Z,16.30
2018-07-17T01:35:02.129Z,16.30
2018-07-17T01:37:36.572Z,15.90
2018-07-17T01:40:11.051Z,15.90
2018-07-17T01:42:45.344Z,16.10
2018-07-17T01:45:19.678Z,16.20
2018-07-17T01:47:54.140Z,16.30
2018-07-17T01:50:28.580Z,16.40
2018-07-17T01:53:02.984Z,16.50
2018-07-17T01:55:37.299Z,16.60
2018-07-17T01:58:12.088Z,16.60
2018-07-17T02:00:46.382Z,16.70
2018-07-17T02:03:20.707Z,16.70
2018-07-17T02:05:54.977Z,16.50
2018-07-17T02:08:29.375Z,16.30
2018-07-17T02:11:03.798Z,16.40
2018-07-17T02:13:38.181Z,16.40
2018-07-17T02:16:12.458Z,16.40
2018-07-17T02:18:46.729Z,16.50
2018-07-17T02:21:21.140Z,16.40
2018-07-17T02:23:55.544Z,16.10
2018-07-17T02:26:29.865Z,15.80
2018-07-17T02:29:04.231Z,16.00
2018-07-17T02:31:38.698Z,16.10
2018-07-17T02:34:13.028Z,16.20
2018-07-17T02:36:47.372Z,16.10
2018-07-17T02:39:21.804Z,16.20
2018-07-17T02:41:56.099Z,16.10
2018-07-17T02:44:30.486Z,16.00
2018-07-17T02:47:04.938Z,16.10
2018-07-17T02:49:39.224Z,16.20
2018-07-17T02:54:47.518Z,16.40
2018-07-17T02:57:21.904Z,16.50
2018-07-17T02:59:56.278Z,16.50
2018-07-17T03:02:30.698Z,16.50
2018-07-17T03:05:05.043Z,16.50
2018-07-17T03:07:39.345Z,16.50
2018-07-17T03:10:13.656Z,16.50
2018-07-17T03:12:48.065Z,16.50
2018-07-17T03:15:22.405Z,16.40
2018-07-17T03:17:56.690Z,16.60
2018-07-17T03:20:31.133Z,16.50
2018-07-17T03:23:05.570Z,16.50
2018-07-17T03:25:40.069Z,16.50
2018-07-17T03:28:14.479Z,16.50
2018-07-17T03:30:48.698Z,16.50
2018-07-17T03:33:23.102Z,16.30
2018-07-17T03:35:57.439Z,16.40
2018-07-17T03:38:31.931Z,16.50
2018-07-17T03:41:06.237Z,16.30
2018-07-17T03:43:40.710Z,16.30
2018-07-17T03:46:15.223Z,16.30
2018-07-17T03:48:49.547Z,16.20
2018-07-17T03:51:23.943Z,16.00
2018-07-17T03:53:58.396Z,16.00
2018-07-17T03:56:32.650Z,16.00
2018-07-17T03:59:06.997Z,16.00
2018-07-17T04:01:41.459Z,15.70
2018-07-17T04:04:15.676Z,15.80
2018-07-17T04:06:49.944Z,15.90
2018-07-17T04:09:24.330Z,16.10
2018-07-17T04:11:58.823Z,16.20
2018-07-17T04:14:33.193Z,16.30
2018-07-17T04:17:07.628Z,16.40
2018-07-17T04:19:42.044Z,16.50
2018-07-17T04:22:16.384Z,16.60
2018-07-17T04:24:50.627Z,16.70
2018-07-17T04:27:25.061Z,16.70
2018-07-17T04:29:59.331Z,16.80
2018-07-17T04:32:33.770Z,16.60
2018-07-17T04:35:08.228Z,16.00
2018-07-17T04:37:42.551Z,16.20
2018-07-17T04:40:16.899Z,16.00
2018-07-17T04:42:51.093Z,16.00
2018-07-17T04:45:25.422Z,16.20
2018-07-17T04:48:05.351Z,16.40
2018-07-17T04:50:39.608Z,16.40
2018-07-17T04:53:14.065Z,16.50
2018-07-17T04:55:48.390Z,16.60
2018-07-17T04:58:22.755Z,16.60
2018-07-17T05:00:57.183Z,16.70
2018-07-17T05:03:31.526Z,16.70
2018-07-17T05:06:05.794Z,16.90
2018-07-17T05:08:40.302Z,16.90
2018-07-17T05:11:14.723Z,16.90
2018-07-17T05:13:49.188Z,17.00
2018-07-17T05:16:23.501Z,17.10
2018-07-17T05:18:57.744Z,17.20
2018-07-17T05:21:32.171Z,17.30
2018-07-17T05:24:06.626Z,17.50
2018-07-17T05:26:40.981Z,17.60
2018-07-17T05:29:15.296Z,17.70
2018-07-17T05:31:49.856Z,17.80
2018-07-17T05:34:24.206Z,17.90
2018-07-17T05:36:58.684Z,17.90
2018-07-17T05:39:32.988Z,17.90
2018-07-17T05:42:07.430Z,18.10
2018-07-17T05:44:42.195Z,18.10
2018-07-17T05:47:16.670Z,17.80
2018-07-17T05:49:50.971Z,17.80
2018-07-17T05:52:25.547Z,17.70
2018-07-17T05:54:59.940Z,17.60
2018-07-17T05:57:34.364Z,17.70
2018-07-17T06:00:09.068Z,17.70
2018-07-17T06:02:43.495Z,17.70
2018-07-17T06:05:18.051Z,17.80
2018-07-17T06:07:52.497Z,17.90
2018-07-17T06:10:26.823Z,17.90
2018-07-17T06:13:01.138Z,18.10
2018-07-17T06:15:35.701Z,18.10
2018-07-17T06:18:10.011Z,18.10
2018-07-17T06:20:44.343Z,18.40
2018-07-17T06:23:18.642Z,18.40
2018-07-17T06:28:27.063Z,18.60
2018-07-17T06:31:01.405Z,18.60
2018-07-17T06:33:35.747Z,18.50
2018-07-17T06:36:10.170Z,18.50
2018-07-17T06:38:44.518Z,18.50
2018-07-17T06:41:18.903Z,18.60
2018-07-17T06:43:53.184Z,18.80
2018-07-17T06:46:27.587Z,19.00
2018-07-17T06:49:01.960Z,19.00
2018-07-17T06:51:36.219Z,18.90
2018-07-17T06:54:10.654Z,19.00
2018-07-17T06:56:45.095Z,19.20
2018-07-17T06:59:19.426Z,19.30
2018-07-17T07:01:53.707Z,19.40
2018-07-17T07:04:28.073Z,19.40
2018-07-17T07:07:02.523Z,19.40
2018-07-17T07:09:36.837Z,19.60
2018-07-17T07:12:11.597Z,19.80
2018-07-17T07:14:45.990Z,19.90
2018-07-17T07:17:20.370Z,20.10
2018-07-17T07:19:54.833Z,20.10
2018-07-17T07:22:29.118Z,20.00
2018-07-17T07:25:03.466Z,20.10
2018-07-17T07:27:37.784Z,20.40
2018-07-17T07:30:12.040Z,20.50
2018-07-17T07:32:46.262Z,20.40
2018-07-17T07:35:20.535Z,20.30
2018-07-17T07:37:54.954Z,20.50
2018-07-17T07:40:29.269Z,20.60
2018-07-17T07:43:03.601Z,20.50
2018-07-17T07:45:37.914Z,20.60
2018-07-17T07:48:12.350Z,20.60
2018-07-17T07:50:46.689Z,21.00
2018-07-17T07:53:21.956Z,21.20
2018-07-17T07:55:56.346Z,21.30
2018-07-17T07:58:30.709Z,21.50
2018-07-17T08:01:04.980Z,21.70
2018-07-17T08:03:39.343Z,21.70
2018-07-17T08:06:13.777Z,21.60
2018-07-17T08:08:48.059Z,21.80
2018-07-17T08:11:22.416Z,21.90
2018-07-17T08:13:56.605Z,21.90
2018-07-17T08:16:31.074Z,21.70
2018-07-17T08:19:05.470Z,21.70
2018-07-17T08:21:39.829Z,21.50
2018-07-17T08:24:14.146Z,21.60
2018-07-17T08:26:48.700Z,21.60
2018-07-17T08:29:23.127Z,21.60
2018-07-17T08:31:57.611Z,21.70
2018-07-17T08:34:32.310Z,22.00
2018-07-17T08:37:06.670Z,22.00
2018-07-17T08:39:40.875Z,22.10
2018-07-17T08:42:15.302Z,22.10
2018-07-17T08:44:49.701Z,22.20
2018-07-17T08:47:24.181Z,22.30
2018-07-17T08:49:58.612Z,22.20
2018-07-17T08:52:32.990Z,22.10
2018-07-17T08:55:07.388Z,21.90
2018-07-17T08:57:41.766Z,22.10
2018-07-17T09:00:16.011Z,22.10
2018-07-17T09:02:50.244Z,22.20
2018-07-17T09:05:24.540Z,22.20
2018-07-17T09:07:58.749Z,22.20
2018-07-17T09:10:33.076Z,22.20
2018-07-17T09:13:07.491Z,22.40
2018-07-17T09:15:41.817Z,22.70
2018-07-17T09:18:16.144Z,22.90
2018-07-17T09:20:50.580Z,23.20
2018-07-17T09:23:24.949Z,23.00
2018-07-17T09:25:59.250Z,23.00
2018-07-17T09:28:33.491Z,23.00
2018-07-17T09:31:07.884Z,23.00
2018-07-17T09:33:42.329Z,23.30
2018-07-17T09:36:16.704Z,23.40
2018-07-17T09:38:50.971Z,23.40
2018-07-17T09:41:25.227Z,23.20
2018-07-17T09:43:59.533Z,23.20
2018-07-17T09:46:33.837Z,23.20
2018-07-17T09:49:08.229Z,22.90
2018-07-17T09:51:42.622Z,23.00
2018-07-17T09:54:17.010Z,23.10
2018-07-17T09:56:51.420Z,23.10
2018-07-17T09:59:25.687Z,22.90
2018-07-17T10:02:05.544Z,22.90
2018-07-17T10:04:40.065Z,23.30
2018-07-17T10:07:14.547Z,23.50
2018-07-17T10:09:48.952Z,23.60
2018-07-17T10:12:24.155Z,23.60
2018-07-17T10:14:58.571Z,23.50
2018-07-17T10:17:32.970Z,23.50
2018-07-17T10:20:07.257Z,23.50
2018-07-17T10:22:42.695Z,23.60
2018-07-17T10:25:17.117Z,23.70
2018-07-17T10:27:51.492Z,23.90
2018-07-17T10:30:25.900Z,24.10
2018-07-17T10:33:00.256Z,24.20
2018-07-17T10:35:35.171Z,24.30
2018-07-17T10:40:43.752Z,24.70
2018-07-17T10:43:18.146Z,24.90
2018-07-17T10:45:52.445Z,25.00
2018-07-17T10:48:26.827Z,24.70
2018-07-17T10:51:01.126Z,24.50
2018-07-17T10:53:35.655Z,24.00
2018-07-17T10:56:10.151Z,22.90
2018-07-17T10:58:44.565Z,22.20
2018-07-17T11:01:18.871Z,19.90
2018-07-17T11:03:53.227Z,19.40
2018-07-17T11:06:27.636Z,19.20
2018-07-17T11:09:02.005Z,19.40
2018-07-17T11:11:36.383Z,19.80
2018-07-17T11:14:10.667Z,20.00
2018-07-17T11:16:44.986Z,20.20
2018-07-17T11:19:19.577Z,20.40
2018-07-17T11:21:54.125Z,20.80
2018-07-17T11:24:28.449Z,21.20
2018-07-17T11:27:02.804Z,22.00
2018-07-17T11:29:37.305Z,22.40
2018-07-17T11:32:11.650Z,22.80
2018-07-17T11:34:45.946Z,22.90
2018-07-17T11:37:20.274Z,23.30
2018-07-17T11:39:54.596Z,23.60
2018-07-17T11:42:29.108Z,23.60
2018-07-17T11:45:03.570Z,23.70
2018-07-17T11:47:37.948Z,23.30
2018-07-17T11:50:12.283Z,22.90
2018-07-17T11:52:46.811Z,22.60
2018-07-17T11:55:21.329Z,22.50
2018-07-17T11:57:55.697Z,22.60
2018-07-17T12:00:30.190Z,22.50
2018-07-17T12:03:04.607Z,22.50
2018-07-17T12:05:38.996Z,22.70
2018-07-17T12:08:13.266Z,22.80
2018-07-17T12:10:47.511Z,22.70
2018-07-17T12:13:21.774Z,22.50
2018-07-17T12:15:56.074Z,22.10
2018-07-17T12:18:30.514Z,21.70
2018-07-17T12:21:04.725Z,21.50
2018-07-17T12:23:39.010Z,21.50
2018-07-17T12:26:13.358Z,21.20
2018-07-17T12:28:47.669Z,21.10
2018-07-17T12:31:21.987Z,21.30
2018-07-17T12:33:56.420Z,21.60
2018-07-17T12:36:30.821Z,22.00
2018-07-17T12:39:07.789Z,21.90
2018-07-17T12:41:42.108Z,22.20
2018-07-17T12:44:16.374Z,21.80
2018-07-17T12:46:50.693Z,21.80
2018-07-17T12:49:25.059Z,21.20
2018-07-17T12:51:59.417Z,20.60
2018-07-17T12:54:33.849Z,20.40
2018-07-17T12:57:08.124Z,20.50
2018-07-17T12:59:42.422Z,20.20
2018-07-17T13:02:16.776Z,20.20
2018-07-17T13:04:51.187Z,19.80
2018-07-17T13:07:25.496Z,19.90
2018-07-17T13:09:59.899Z,20.10
2018-07-17T13:12:34.191Z,20.70
2018-07-17T13:15:08.568Z,21.20
2018-07-17T13:17:42.933Z,21.10
2018-07-17T13:20:17.321Z,20.90
2018-07-17T13:22:51.777Z,21.00
2018-07-17T13:25:26.121Z,20.90
2018-07-17T13:28:00.508Z,20.50
2018-07-17T13:30:34.864Z,20.30
2018-07-17T13:33:09.245Z,20.00
2018-07-17T13:35:43.585Z,19.80
2018-07-17T13:38:17.996Z,19.60
2018-07-17T13:40:52.292Z,19.30
2018-07-17T13:43:26.789Z,19.30
2018-07-17T13:46:01.276Z,19.00
2018-07-17T13:48:35.790Z,18.70
2018-07-17T13:51:10.151Z,18.30
2018-07-17T13:53:45.027Z,17.50
2018-07-17T13:56:19.565Z,16.90
2018-07-17T13:58:53.859Z,16.50
2018-07-17T14:01:28.208Z,16.50
2018-07-17T14:04:02.650Z,16.80
2018-07-17T14:06:37.185Z,17.00
2018-07-17T14:09:11.922Z,17.30
2018-07-17T14:11:46.419Z,17.00
2018-07-17T14:14:20.726Z,16.80
2018-07-17T14:16:55.056Z,17.10
2018-07-17T14:19:29.395Z,16.70
2018-07-17T14:22:03.950Z,16.70
2018-07-17T14:24:38.374Z,16.80
2018-07-17T14:27:12.871Z,16.40
2018-07-17T14:29:47.376Z,16.50
2018-07-17T14:32:21.839Z,16.60
2018-07-17T14:34:56.243Z,16.50
2018-07-17T14:37:30.689Z,16.90
2018-07-17T14:40:05.338Z,17.10
2018-07-17T14:42:39.702Z,17.20
2018-07-17T14:45:13.975Z,17.40
2018-07-17T14:47:48.433Z,17.50
2018-07-17T14:50:22.956Z,17.70
2018-07-17T14:52:57.326Z,17.90
2018-07-17T14:55:31.665Z,18.30
2018-07-17T14:58:06.262Z,18.50
2018-07-17T15:00:40.730Z,18.40
2018-07-17T15:03:15.188Z,18.50
2018-07-17T15:05:49.495Z,19.00
2018-07-17T15:08:23.853Z,19.60
2018-07-17T15:10:58.249Z,20.10
2018-07-17T15:13:32.533Z,20.50
2018-07-17T15:16:07.042Z,20.10
2018-07-17T15:18:41.532Z,19.90
2018-07-17T15:21:15.992Z,19.90
2018-07-17T15:23:50.336Z,20.10
2018-07-17T15:26:24.773Z,20.20
2018-07-17T15:28:59.190Z,20.20
2018-07-17T15:31:33.507Z,20.30
2018-07-17T15:34:07.943Z,20.70
2018-07-17T15:36:42.223Z,20.40
2018-07-17T15:39:16.683Z,20.20
2018-07-17T15:41:51.169Z,20.50
2018-07-17T15:44:25.491Z,21.00
2018-07-17T15:46:59.772Z,21.30
2018-07-17T15:49:34.128Z,21.70
2018-07-17T15:52:08.514Z,22.00
2018-07-17T15:54:42.834Z,22.40
2018-07-17T15:57:17.220Z,22.70
2018-07-17T15:59:51.596Z,22.80
2018-07-17T16:02:25.949Z,23.00
2018-07-17T16:05:00.482Z,23.10
2018-07-17T16:07:34.836Z,23.40
2018-07-17T16:10:09.178Z,23.70
2018-07-17T16:12:44.557Z,24.10
2018-07-17T16:15:18.853Z,24.30
2018-07-17T16:17:53.369Z,24.20
2018-07-17T16:20:27.710Z,24.60
2018-07-17T16:23:02.076Z,25.00
2018-07-17T16:25:36.427Z,25.70
2018-07-17T16:28:10.862Z,26.20
2018-07-17T16:30:45.176Z,26.80
2018-07-17T16:33:19.606Z,26.70
2018-07-17T16:35:54.023Z,27.20
2018-07-17T16:38:28.399Z,27.10
2018-07-17T16:41:02.815Z,27.60
2018-07-17T16:43:37.253Z,28.00
2018-07-17T16:46:11.572Z,27.80
2018-07-17T16:48:45.936Z,27.90
2018-07-17T16:51:20.321Z,28.20
2018-07-17T16:53:54.996Z,27.70
2018-07-17T16:56:29.408Z,28.00
2018-07-17T16:59:03.826Z,27.60
2018-07-17T17:01:38.320Z,27.10
2018-07-17T17:04:12.850Z,26.40
2018-07-17T17:09:21.661Z,25.40
2018-07-17T17:11:55.996Z,25.10
2018-07-17T17:14:30.298Z,25.60
2018-07-17T17:17:04.720Z,26.00
2018-07-17T17:19:39.297Z,26.60
2018-07-17T17:22:14.027Z,26.60
2018-07-17T17:24:48.438Z,27.10
2018-07-17T17:27:23.326Z,25.90
2018-07-17T17:29:57.771Z,26.80
2018-07-17T17:32:32.127Z,26.70
2018-07-17T17:35:06.730Z,26.90
2018-07-17T17:37:41.326Z,26.00
2018-07-17T17:40:15.718Z,26.00
2018-07-17T17:42:50.057Z,26.20
2018-07-17T17:45:24.488Z,25.50
2018-07-17T17:47:58.754Z,25.20
2018-07-17T17:50:33.217Z,25.10
2018-07-17T17:53:07.851Z,25.00
2018-07-17T17:55:42.221Z,24.80
2018-07-17T17:58:16.574Z,24.70
2018-07-17T18:00:51.102Z,24.50
2018-07-17T18:03:25.463Z,24.10
2018-07-17T18:05:59.901Z,23.80
2018-07-17T18:08:34.324Z,23.40
2018-07-17T18:11:08.670Z,22.80
2018-07-17T18:13:42.956Z,22.40
2018-07-17T18:16:17.357Z,22.20
2018-07-17T18:18:51.818Z,21.90
2018-07-17T18:21:26.181Z,21.50
2018-07-17T18:24:00.579Z,21.50
2018-07-17T18:26:34.947Z,21.30
2018-07-17T18:29:09.285Z,21.20
2018-07-17T18:31:43.612Z,21.10
2018-07-17T18:34:18.240Z,21.00
2018-07-17T18:36:52.484Z,20.90
2018-07-17T18:39:26.822Z,20.60
2018-07-17T18:42:01.204Z,20.40
2018-07-17T18:44:35.580Z,20.30
2018-07-17T18:47:10.396Z,20.10
2018-07-17T18:49:44.836Z,20.20
2018-07-17T18:52:19.635Z,20.00
2018-07-17T18:54:54.084Z,20.00
2018-07-17T18:57:28.394Z,20.10
2018-07-17T19:00:02.747Z,20.20
2018-07-17T19:02:37.012Z,20.20
2018-07-17T19:05:11.302Z,20.00
2018-07-17T19:07:45.582Z,19.10
2018-07-17T19:10:19.953Z,18.50
2018-07-17T19:12:54.256Z,18.40
2018-07-17T19:15:28.625Z,18.20
2018-07-17T19:18:02.838Z,18.30
2018-07-17T19:20:37.348Z,18.50
2018-07-17T19:23:11.620Z,18.90
2018-07-17T19:25:45.964Z,19.00
2018-07-17T19:28:20.378Z,19.10
2018-07-17T19:30:54.853Z,19.20
2018-07-17T19:33:29.300Z,19.30
2018-07-17T19:36:03.671Z,19.00
2018-07-17T19:38:38.061Z,18.40
2018-07-17T19:41:12.455Z,18.30
2018-07-17T19:43:46.786Z,18.30
2018-07-17T19:46:21.142Z,18.40
2018-07-17T19:48:55.425Z,18.50
2018-07-17T19:51:29.641Z,18.80
2018-07-17T19:54:03.918Z,19.00
2018-07-17T19:56:38.261Z,19.10
2018-07-17T19:59:12.653Z,19.00
2018-07-17T20:01:47.075Z,18.40
2018-07-17T20:04:21.502Z,18.50
2018-07-17T20:06:55.954Z,18.60
2018-07-17T20:09:30.262Z,18.70
2018-07-17T20:12:04.723Z,18.80
2018-07-17T20:14:39.007Z,18.80
2018-07-17T20:17:13.520Z,18.60
2018-07-17T20:19:47.914Z,18.30
2018-07-17T20:22:22.319Z,18.50
2018-07-17T20:24:56.601Z,18.60
2018-07-17T20:27:31.008Z,18.80
2018-07-17T20:30:05.414Z,18.90
2018-07-17T20:32:39.636Z,19.00
2018-07-17T20:35:14.018Z,19.00
2018-07-17T20:37:48.275Z,18.90
2018-07-17T20:40:24.285Z,19.00
2018-07-17T20:42:58.658Z,19.00
2018-07-17T20:45:35.911Z,19.00
2018-07-17T20:48:10.340Z,18.80
2018-07-17T20:50:46.728Z,18.80
2018-07-17T20:53:21.440Z,18.80
2018-07-17T20:56:00.454Z,18.90
2018-07-17T20:58:34.939Z,18.90
2018-07-17T21:01:09.211Z,18.80
2018-07-17T21:03:43.685Z,18.80
2018-07-17T21:06:18.073Z,18.80
2018-07-17T21:08:53.865Z,18.60
2018-07-17T21:11:29.367Z,18.60
2018-07-17T21:14:03.619Z,18.50
2018-07-17T21:16:38.717Z,18.20
2018-07-17T21:19:13.742Z,18.20
2018-07-17T21:21:48.312Z,18.20
2018-07-17T21:24:22.852Z,18.30
2018-07-17T21:26:57.539Z,18.30
2018-07-17T21:29:33.812Z,18.30
2018-07-17T21:32:08.229Z,18.30
2018-07-17T21:34:42.556Z,18.20
2018-07-17T21:37:17.020Z,18.20
2018-07-17T21:39:51.484Z,18.10
2018-07-17T21:42:26.242Z,18.10
2018-07-17T21:45:00.698Z,18.10
2018-07-17T21:47:34.955Z,18.00
2018-07-17T21:50:09.230Z,18.00
2018-07-17T21:52:43.523Z,17.80
2018-07-17T21:55:17.905Z,17.70
2018-07-17T21:57:52.312Z,17.70
2018-07-17T22:00:27.998Z,17.70
2018-07-17T22:03:02.472Z,17.70
2018-07-17T22:05:36.896Z,17.70
2018-07-17T22:08:11.340Z,17.70
2018-07-17T22:10:45.930Z,17.70
2018-07-17T22:13:20.513Z,17.60
2018-07-17T22:15:55.032Z,17.40
2018-07-17T22:18:29.485Z,17.40
2018-07-17T22:21:03.867Z,17.40
2018-07-17T22:23:38.188Z,17.40
2018-07-17T22:26:12.553Z,17.40
2018-07-17T22:28:46.990Z,17.30
2018-07-17T22:31:21.314Z,17.20
2018-07-17T22:33:55.744Z,17.10
2018-07-17T22:36:30.202Z,17.10
2018-07-17T22:39:06.300Z,17.10
2018-07-17T22:41:40.705Z,17.10
2018-07-17T22:44:15.112Z,17.10
2018-07-17T22:46:49.614Z,17.10
2018-07-17T22:49:24.101Z,17.00
2018-07-17T22:51:58.421Z,16.90
2018-07-17T22:54:32.717Z,16.90
2018-07-17T22:57:07.172Z,16.90
2018-07-17T22:59:41.531Z,16.90
2018-07-17T23:02:16.174Z,16.80
2018-07-17T23:04:50.671Z,16.80
2018-07-17T23:07:25.131Z,16.80
2018-07-17T23:09:59.566Z,16.70
2018-07-17T23:12:34.007Z,16.70
2018-07-17T23:15:08.380Z,16.60
2018-07-17T23:17:42.801Z,16.60
2018-07-17T23:20:17.244Z,16.60
2018-07-17T23:22:53.634Z,16.60
2018-07-17T23:25:30.303Z,16.50
2018-07-17T23:28:04.599Z,16.40
2018-07-17T23:30:39.002Z,16.40
2018-07-17T23:33:13.311Z,16.50
2018-07-17T23:35:47.600Z,16.40
2018-07-17T23:40:56.357Z,16.40
2018-07-17T23:43:30.682Z,16.50
2018-07-17T23:46:05.163Z,16.30
2018-07-17T23:48:39.670Z,16.20
2018-07-17T23:51:14.128Z,16.30
2018-07-17T23:53:48.494Z,16.30
2018-07-17T23:56:22.819Z,16.20
2018-07-17T23:58:57.110Z,16.30
